createdAt,value
2023-03-06T00:02:15.759Z,97036.44
2023-03-06T00:04:44.181Z,97037.77
2023-03-06T00:07:15.011Z,97043.06
2023-03-06T00:10:17.675Z,97044.35
2023-03-06T00:12:48.060Z,97042.50
2023-03-06T00:15:39.796Z,97042.71
2023-03-06T00:18:09.165Z,97041.89
2023-03-06T00:20:45.333Z,97038.67
2023-03-06T00:23:13.984Z,97039.25
2023-03-06T00:26:02.843Z,97043.45
2023-03-06T00:28:31.705Z,97036.61
2023-03-06T00:31:00.094Z,97037.17
2023-03-06T00:33:28.680Z,97037.16
2023-03-06T00:35:59.513Z,97040.15
2023-03-06T00:38:47.791Z,97038.31
2023-03-06T00:41:16.317Z,97038.05
2023-03-06T00:43:44.716Z,97040.30
2023-03-06T00:46:15.642Z,97042.02
2023-03-06T00:49:04.484Z,97041.30
2023-03-06T00:51:35.841Z,97040.59
2023-03-06T00:54:14.003Z,97042.52
2023-03-06T00:56:42.459Z,97048.59
2023-03-06T00:59:32.579Z,97048.48
2023-03-06T01:02:21.108Z,97049.23
2023-03-06T01:04:58.361Z,97042.20
2023-03-06T01:07:33.567Z,97042.56
2023-03-06T01:10:02.607Z,97039.91
2023-03-06T01:12:31.318Z,97044.05
2023-03-06T01:15:20.417Z,97049.09
2023-03-06T01:18:43.861Z,97042.17
2023-03-06T01:21:12.887Z,97046.98
2023-03-06T01:23:41.724Z,97047.66
2023-03-06T01:26:30.473Z,97047.89
2023-03-06T01:28:59.370Z,97045.23
2023-03-06T01:31:53.194Z,97040.14
2023-03-06T01:34:21.782Z,97043.17
2023-03-06T01:37:00.319Z,97041.23
2023-03-06T01:39:29.240Z,97038.50
2023-03-06T01:41:58.293Z,97039.02
2023-03-06T01:44:29.313Z,97038.45
2023-03-06T01:47:00.615Z,97033.78
2023-03-06T01:49:43.623Z,97037.71
2023-03-06T01:52:40.407Z,97032.84
2023-03-06T01:55:24.694Z,97034.40
2023-03-06T01:58:06.708Z,97034.40
2023-03-06T02:00:36.419Z,97032.83
2023-03-06T02:03:11.609Z,97042.81
2023-03-06T02:05:53.676Z,97049.64
2023-03-06T02:08:29.645Z,97050.04
2023-03-06T02:11:15.353Z,97046.55
2023-03-06T02:13:45.699Z,97049.84
2023-03-06T02:16:16.786Z,97051.59
2023-03-06T02:19:44.562Z,97050.92
2023-03-06T02:22:13.241Z,97052.60
2023-03-06T02:25:01.933Z,97050.03
2023-03-06T02:27:32.737Z,97050.23
2023-03-06T02:30:10.314Z,97049.86
2023-03-06T02:32:46.090Z,97048.64
2023-03-06T02:35:26.966Z,97050.55
2023-03-06T02:38:13.695Z,97048.39
2023-03-06T02:40:52.893Z,97048.75
2023-03-06T02:43:26.308Z,97049.55
2023-03-06T02:45:55.042Z,97048.95
2023-03-06T02:48:23.547Z,97048.45
2023-03-06T02:51:12.166Z,97049.45
2023-03-06T02:53:42.857Z,97046.33
2023-03-06T02:56:11.283Z,97050.00
2023-03-06T02:58:39.741Z,97052.38
2023-03-06T03:01:17.147Z,97051.20
2023-03-06T03:04:28.742Z,97049.75
2023-03-06T03:06:58.269Z,97049.54
2023-03-06T03:09:26.889Z,97057.17
2023-03-06T03:11:55.293Z,97060.08
2023-03-06T03:14:24.956Z,97059.04
2023-03-06T03:17:55.206Z,97062.86
2023-03-06T03:20:38.145Z,97053.02
2023-03-06T03:23:48.679Z,97049.72
2023-03-06T03:27:01.998Z,97046.64
2023-03-06T03:29:30.538Z,97049.98
2023-03-06T03:32:20.152Z,97053.74
2023-03-06T03:35:28.926Z,97051.64
2023-03-06T03:38:01.135Z,97051.19
2023-03-06T03:40:29.826Z,97051.96
2023-03-06T03:42:59.990Z,97052.83
2023-03-06T03:45:29.085Z,97053.30
2023-03-06T03:48:18.111Z,97050.92
2023-03-06T03:50:46.682Z,97053.33
2023-03-06T03:53:24.086Z,97052.21
2023-03-06T03:55:52.846Z,97054.08
2023-03-06T03:58:21.625Z,97057.02
2023-03-06T04:00:50.600Z,97051.49
2023-03-06T04:03:28.673Z,97054.48
2023-03-06T04:05:58.196Z,97057.01
2023-03-06T04:08:27.226Z,97059.01
2023-03-06T04:11:56.082Z,97067.12
2023-03-06T04:14:24.583Z,97062.98
2023-03-06T04:16:53.053Z,97067.66
2023-03-06T04:19:21.610Z,97071.30
2023-03-06T04:21:50.726Z,97069.98
2023-03-06T04:24:20.062Z,97071.46
2023-03-06T04:26:49.071Z,97073.35
2023-03-06T04:29:17.759Z,97077.35
2023-03-06T04:31:46.679Z,97072.41
2023-03-06T04:34:55.769Z,97073.36
2023-03-06T04:37:26.384Z,97076.38
2023-03-06T04:40:04.586Z,97077.09
2023-03-06T04:42:33.275Z,97078.55
2023-03-06T04:45:04.707Z,97077.34
2023-03-06T04:47:35.935Z,97075.64
2023-03-06T04:50:05.360Z,97076.45
2023-03-06T04:52:33.792Z,97074.10
2023-03-06T04:55:11.802Z,97074.11
2023-03-06T04:58:00.499Z,97078.42
2023-03-06T05:00:34.126Z,97078.70
2023-03-06T05:03:43.476Z,97078.00
2023-03-06T05:06:32.335Z,97082.66
2023-03-06T05:09:00.982Z,97085.41
2023-03-06T05:11:29.510Z,97088.99
2023-03-06T05:14:38.044Z,97093.13
2023-03-06T05:17:06.561Z,97094.95
2023-03-06T05:19:37.887Z,97094.23
2023-03-06T05:22:06.304Z,97098.29
2023-03-06T05:25:35.099Z,97103.27
2023-03-06T05:28:03.643Z,97106.98
2023-03-06T05:31:37.598Z,97111.31
2023-03-06T05:34:08.300Z,97110.27
2023-03-06T05:36:47.545Z,97112.41
2023-03-06T05:39:36.312Z,97112.30
2023-03-06T05:42:26.380Z,97111.55
2023-03-06T05:44:56.090Z,97113.10
2023-03-06T05:47:24.742Z,97119.15
2023-03-06T05:49:53.050Z,97119.36
2023-03-06T05:52:27.352Z,97122.54
2023-03-06T05:56:17.809Z,97124.92
2023-03-06T06:03:33.750Z,97128.74
2023-03-06T06:06:24.667Z,97130.73
2023-03-06T06:12:29.729Z,97130.24
2023-03-06T06:14:58.336Z,97131.20
2023-03-06T06:17:40.251Z,97123.02
2023-03-06T06:20:09.686Z,97128.19
2023-03-06T06:22:38.398Z,97134.40
2023-03-06T06:25:07.491Z,97130.30
2023-03-06T06:27:35.895Z,97133.96
2023-03-06T06:30:06.171Z,97135.55
2023-03-06T06:32:34.808Z,97132.81
2023-03-06T06:35:03.949Z,97130.97
2023-03-06T06:37:40.586Z,97137.29
2023-03-06T06:40:09.578Z,97145.73
2023-03-06T06:42:40.130Z,97144.52
2023-03-06T06:45:10.749Z,97140.13
2023-03-06T06:47:54.554Z,97139.95
2023-03-06T06:50:23.287Z,97151.63
2023-03-06T06:53:38.464Z,97157.52
2023-03-06T06:56:10.160Z,97155.17
2023-03-06T06:58:38.794Z,97160.44
2023-03-06T07:01:28.356Z,97160.17
2023-03-06T07:04:49.104Z,97159.24
2023-03-06T07:07:27.923Z,97158.95
2023-03-06T07:14:29.955Z,97158.81
2023-03-06T07:16:58.802Z,97161.81
2023-03-06T07:19:31.946Z,97164.04
2023-03-06T07:22:00.455Z,97166.11
2023-03-06T07:24:29.076Z,97165.59
2023-03-06T07:26:58.495Z,97164.73
2023-03-06T07:29:35.720Z,97164.25
2023-03-06T07:32:04.307Z,97162.91
2023-03-06T07:34:32.682Z,97164.67
2023-03-06T07:37:01.080Z,97170.77
2023-03-06T07:39:30.449Z,97171.55
2023-03-06T07:41:58.859Z,97173.22
2023-03-06T07:44:27.987Z,97171.77
2023-03-06T07:46:56.537Z,97169.77
2023-03-06T07:49:24.983Z,97170.95
2023-03-06T07:51:53.319Z,97171.98
2023-03-06T07:54:21.649Z,97168.15
2023-03-06T07:56:53.478Z,97170.95
2023-03-06T07:59:22.158Z,97165.85
2023-03-06T08:01:50.630Z,97169.94
2023-03-06T08:04:30.271Z,97171.48
2023-03-06T08:07:00.185Z,97171.63
2023-03-06T08:09:28.692Z,97171.11
2023-03-06T08:11:57.066Z,97171.98
2023-03-06T08:14:25.350Z,97174.84
2023-03-06T08:16:56.968Z,97177.74
2023-03-06T08:19:25.252Z,97184.09
2023-03-06T08:21:53.551Z,97182.60
2023-03-06T08:24:21.858Z,97175.15
2023-03-06T08:26:50.279Z,97174.58
2023-03-06T08:29:18.680Z,97172.68
2023-03-06T08:31:54.721Z,97178.11
2023-03-06T08:34:41.184Z,97187.73
2023-03-06T08:37:09.679Z,97182.09
2023-03-06T08:39:38.148Z,97181.27
2023-03-06T08:42:06.511Z,97177.14
2023-03-06T08:44:35.427Z,97180.69
2023-03-06T08:47:04.734Z,97181.16
2023-03-06T08:49:40.701Z,97183.33
2023-03-06T08:52:09.069Z,97186.46
2023-03-06T08:54:37.540Z,97185.64
2023-03-06T08:57:06.880Z,97181.13
2023-03-06T08:59:36.916Z,97178.07
2023-03-06T09:02:07.567Z,97178.53
2023-03-06T09:04:36.043Z,97174.42
2023-03-06T09:07:05.073Z,97176.72
2023-03-06T09:09:33.485Z,97176.92
2023-03-06T09:12:01.842Z,97176.54
2023-03-06T09:14:31.356Z,97180.20
2023-03-06T09:17:00.551Z,97180.02
2023-03-06T09:19:39.609Z,97179.34
2023-03-06T09:22:11.007Z,97180.52
2023-03-06T09:24:39.486Z,97182.60
2023-03-06T09:27:07.777Z,97184.55
2023-03-06T09:29:35.951Z,97182.19
2023-03-06T09:32:04.535Z,97177.17
2023-03-06T09:34:33.137Z,97172.14
2023-03-06T09:37:05.037Z,97174.55
2023-03-06T09:39:41.221Z,97178.49
2023-03-06T09:42:16.445Z,97176.91
2023-03-06T09:44:50.595Z,97177.96
2023-03-06T09:47:49.871Z,97175.92
2023-03-06T09:50:37.126Z,97174.50
2023-03-06T09:53:31.730Z,97176.79
2023-03-06T09:56:20.579Z,97176.61
2023-03-06T09:59:03.991Z,97176.49
2023-03-06T10:01:37.723Z,97177.25
2023-03-06T10:04:29.278Z,97177.84
2023-03-06T10:07:13.543Z,97169.41
2023-03-06T10:09:45.430Z,97164.34
2023-03-06T10:12:35.637Z,97161.02
2023-03-06T10:15:41.633Z,97163.58
2023-03-06T10:18:20.187Z,97160.80
2023-03-06T10:21:07.418Z,97158.95
2023-03-06T10:28:04.509Z,97160.84
2023-03-06T10:31:28.807Z,97158.98
2023-03-06T10:34:38.527Z,97158.61
2023-03-06T10:37:22.052Z,97161.52
2023-03-06T10:39:57.652Z,97159.27
2023-03-06T10:42:27.025Z,97155.39
2023-03-06T10:45:16.321Z,97151.21
2023-03-06T10:47:44.988Z,97143.41
2023-03-06T10:50:25.527Z,97138.70
2023-03-06T10:53:05.172Z,97135.27
2023-03-06T10:55:35.818Z,97133.05
2023-03-06T10:58:30.621Z,97130.84
2023-03-06T11:01:17.667Z,97130.53
2023-03-06T11:03:46.345Z,97120.94
2023-03-06T11:06:38.107Z,97122.61
2023-03-06T11:09:17.170Z,97116.73
2023-03-06T11:11:48.206Z,97115.98
2023-03-06T11:14:23.171Z,97114.44
2023-03-06T11:16:53.891Z,97116.44
2023-03-06T11:19:29.829Z,97109.40
2023-03-06T11:22:18.139Z,97110.02
2023-03-06T11:24:50.627Z,97105.80
2023-03-06T11:27:34.693Z,97102.80
2023-03-06T11:30:09.649Z,97099.62
2023-03-06T11:32:52.557Z,97094.68
2023-03-06T11:35:22.513Z,97090.73
2023-03-06T11:37:59.590Z,97088.97
2023-03-06T11:40:58.645Z,97084.08
2023-03-06T11:43:48.833Z,97079.49
2023-03-06T11:46:28.653Z,97075.28
2023-03-06T11:49:15.575Z,97071.35
2023-03-06T11:51:52.157Z,97064.62
2023-03-06T11:54:20.396Z,97060.80
2023-03-06T11:57:00.367Z,97056.95
2023-03-06T11:59:47.368Z,97057.91
2023-03-06T12:02:46.783Z,97054.18
2023-03-06T12:05:28.370Z,97048.80
2023-03-06T12:08:13.109Z,97047.57
2023-03-06T12:10:51.741Z,97044.52
2023-03-06T12:13:26.109Z,97045.98
2023-03-06T12:16:08.453Z,97044.38
2023-03-06T12:19:03.110Z,97043.13
2023-03-06T12:22:01.696Z,97042.92
2023-03-06T12:24:51.355Z,97037.44
2023-03-06T12:27:33.851Z,97034.07
2023-03-06T12:30:26.262Z,97030.89
2023-03-06T12:33:15.280Z,97022.38
2023-03-06T12:36:14.422Z,97021.63
2023-03-06T12:39:05.813Z,97019.50
2023-03-06T12:41:37.008Z,97017.77
2023-03-06T12:44:33.192Z,97019.09
2023-03-06T12:47:10.495Z,97015.99
2023-03-06T12:49:51.831Z,97011.25
2023-03-06T12:52:31.419Z,97009.29
2023-03-06T12:55:01.829Z,97010.95
2023-03-06T12:57:30.466Z,97006.45
2023-03-06T12:59:58.641Z,97004.73
2023-03-06T13:02:51.647Z,97002.69
2023-03-06T13:05:30.978Z,97000.66
2023-03-06T13:08:21.995Z,96994.70
2023-03-06T13:11:27.978Z,96987.81
2023-03-06T13:14:03.928Z,96983.73
2023-03-06T13:16:34.694Z,96978.46
2023-03-06T13:19:33.402Z,96971.06
2023-03-06T13:22:27.936Z,96967.02
2023-03-06T13:25:21.170Z,96965.21
2023-03-06T13:27:52.420Z,96964.67
2023-03-06T13:30:39.041Z,96968.57
2023-03-06T13:33:37.154Z,96966.02
2023-03-06T13:36:20.755Z,96964.73
2023-03-06T13:38:48.848Z,96964.11
2023-03-06T13:41:23.017Z,96960.70
2023-03-06T13:43:54.529Z,96962.38
2023-03-06T13:46:35.858Z,96965.52
2023-03-06T13:49:13.028Z,96966.35
2023-03-06T13:51:49.928Z,96963.52
2023-03-06T13:54:36.229Z,96960.27
2023-03-06T13:57:28.771Z,96957.31
2023-03-06T14:00:15.734Z,96954.11
2023-03-06T14:03:18.919Z,96948.70
2023-03-06T14:05:49.698Z,96945.98
2023-03-06T14:08:30.466Z,96947.53
2023-03-06T14:11:22.463Z,96946.66
2023-03-06T14:13:56.959Z,96944.83
2023-03-06T14:16:47.464Z,96947.41
2023-03-06T14:19:19.387Z,96947.39
2023-03-06T14:21:49.234Z,96944.84
2023-03-06T14:24:20.323Z,96940.53
2023-03-06T14:26:51.402Z,96940.42
2023-03-06T14:29:25.100Z,96936.09
2023-03-06T14:31:58.636Z,96933.47
2023-03-06T14:34:30.759Z,96928.27
2023-03-06T14:37:05.673Z,96926.20
2023-03-06T14:39:46.744Z,96929.98
2023-03-06T14:42:21.392Z,96929.77
2023-03-06T14:45:01.468Z,96925.81
2023-03-06T14:47:32.318Z,96923.11
2023-03-06T14:50:19.543Z,96923.06
2023-03-06T14:52:58.966Z,96925.80
2023-03-06T14:55:29.817Z,96920.67
2023-03-06T14:58:22.811Z,96916.23
2023-03-06T15:00:54.864Z,96916.45
2023-03-06T15:03:35.345Z,96918.64
2023-03-06T15:06:06.729Z,96915.62
2023-03-06T15:08:39.372Z,96913.35
2023-03-06T15:11:07.953Z,96910.92
2023-03-06T15:13:36.158Z,96910.88
2023-03-06T15:16:13.266Z,96909.82
2023-03-06T15:19:03.012Z,96908.95
2023-03-06T15:21:38.066Z,96905.10
2023-03-06T15:24:42.048Z,96907.13
2023-03-06T15:27:18.165Z,96902.20
2023-03-06T15:29:46.565Z,96903.61
2023-03-06T15:32:42.570Z,96903.63
2023-03-06T15:35:28.915Z,96903.79
2023-03-06T15:37:58.207Z,96901.90
2023-03-06T15:40:30.845Z,96909.23
2023-03-06T15:43:00.540Z,96909.75
2023-03-06T15:45:30.262Z,96910.61
2023-03-06T15:48:00.434Z,96912.81
2023-03-06T15:50:30.292Z,96908.85
2023-03-06T15:52:58.360Z,96911.67
2023-03-06T15:55:26.549Z,96910.98
2023-03-06T15:57:59.963Z,96908.61
2023-03-06T16:00:31.476Z,96908.45
2023-03-06T16:03:00.705Z,96907.53
2023-03-06T16:05:29.601Z,96906.30
2023-03-06T16:07:58.286Z,96906.37
2023-03-06T16:10:30.663Z,96906.73
2023-03-06T16:13:09.771Z,96906.63
2023-03-06T16:15:47.062Z,96906.08
2023-03-06T16:18:18.373Z,96903.85
2023-03-06T16:20:47.107Z,96897.28
2023-03-06T16:23:16.651Z,96899.17
2023-03-06T16:25:49.120Z,96904.02
2023-03-06T16:28:17.837Z,96904.06
2023-03-06T16:30:46.191Z,96905.34
2023-03-06T16:33:14.907Z,96903.93
2023-03-06T16:35:46.566Z,96894.74
2023-03-06T16:38:15.909Z,96901.55
2023-03-06T16:40:44.170Z,96902.28
2023-03-06T16:43:13.697Z,96899.27
2023-03-06T16:45:42.711Z,96894.67
2023-03-06T16:48:16.070Z,96896.90
2023-03-06T16:50:44.975Z,96891.30
2023-03-06T16:53:13.544Z,96895.14
2023-03-06T16:55:42.034Z,96893.19
2023-03-06T16:58:10.268Z,96897.54
2023-03-06T17:00:38.648Z,96895.59
2023-03-06T17:03:07.464Z,96901.91
2023-03-06T17:05:38.681Z,96901.85
2023-03-06T17:08:06.919Z,96901.34
2023-03-06T17:10:35.969Z,96898.85
2023-03-06T17:13:05.424Z,96893.23
2023-03-06T17:15:33.752Z,96893.20
2023-03-06T17:18:02.313Z,96891.60
2023-03-06T17:20:30.470Z,96886.30
2023-03-06T17:22:58.782Z,96887.22
2023-03-06T17:25:26.860Z,96885.77
2023-03-06T17:27:55.187Z,96885.31
2023-03-06T17:30:23.575Z,96882.19
2023-03-06T17:32:53.378Z,96881.89
2023-03-06T17:35:21.470Z,96879.67
2023-03-06T17:37:49.946Z,96875.34
2023-03-06T17:40:18.351Z,96871.39
2023-03-06T17:42:46.508Z,96868.52
2023-03-06T17:45:14.836Z,96868.60
2023-03-06T17:47:43.784Z,96867.55
2023-03-06T17:50:12.215Z,96862.70
2023-03-06T17:52:40.427Z,96865.36
2023-03-06T17:55:09.089Z,96863.48
2023-03-06T17:57:37.777Z,96859.77
2023-03-06T18:00:07.012Z,96859.61
2023-03-06T18:02:40.529Z,96860.30
2023-03-06T18:05:09.544Z,96859.27
2023-03-06T18:07:38.224Z,96856.23
2023-03-06T18:10:07.001Z,96853.74
2023-03-06T18:12:35.305Z,96848.37
2023-03-06T18:15:04.145Z,96851.96
2023-03-06T18:17:32.408Z,96855.34
2023-03-06T18:20:00.549Z,96854.08
2023-03-06T18:22:28.916Z,96853.21
2023-03-06T18:24:57.029Z,96854.98
2023-03-06T18:27:25.149Z,96852.87
2023-03-06T18:29:55.688Z,96851.38
2023-03-06T18:32:24.067Z,96848.55
2023-03-06T18:34:52.362Z,96847.95
2023-03-06T18:37:21.058Z,96850.56
2023-03-06T18:39:49.563Z,96848.49
2023-03-06T18:42:18.525Z,96845.27
2023-03-06T18:44:48.228Z,96847.63
2023-03-06T18:47:16.796Z,96850.50
2023-03-06T18:49:46.030Z,96843.46
2023-03-06T18:52:14.596Z,96841.95
2023-03-06T18:54:42.930Z,96840.05
2023-03-06T18:57:11.480Z,96838.98
2023-03-06T18:59:39.893Z,96834.13
2023-03-06T19:02:10.320Z,96830.70
2023-03-06T19:04:38.725Z,96833.33
2023-03-06T19:07:06.968Z,96831.42
2023-03-06T19:09:35.252Z,96826.13
2023-03-06T19:12:04.819Z,96826.20
2023-03-06T19:14:33.194Z,96821.11
2023-03-06T19:17:02.092Z,96817.45
2023-03-06T19:19:30.316Z,96819.49
2023-03-06T19:21:58.749Z,96819.19
2023-03-06T19:24:27.266Z,96819.41
2023-03-06T19:26:55.430Z,96817.89
2023-03-06T19:29:23.693Z,96818.19
2023-03-06T19:31:52.442Z,96814.02
2023-03-06T19:34:20.828Z,96815.46
2023-03-06T19:36:50.476Z,96811.43
2023-03-06T19:39:18.782Z,96809.48
2023-03-06T19:41:47.986Z,96806.23
2023-03-06T19:44:16.936Z,96809.96
2023-03-06T19:46:45.971Z,96807.02
2023-03-06T19:49:18.044Z,96804.38
2023-03-06T19:51:46.365Z,96805.44
2023-03-06T19:54:14.677Z,96802.10
2023-03-06T19:56:43.004Z,96800.50
2023-03-06T19:59:11.174Z,96796.77
2023-03-06T20:01:42.317Z,96794.02
2023-03-06T20:04:10.806Z,96790.98
2023-03-06T20:06:39.424Z,96790.63
2023-03-06T20:09:09.304Z,96787.55
2023-03-06T20:11:38.917Z,96781.76
2023-03-06T20:14:08.927Z,96780.33
2023-03-06T20:16:37.388Z,96771.88
2023-03-06T20:19:06.670Z,96767.15
2023-03-06T20:21:37.691Z,96768.94
2023-03-06T20:24:08.079Z,96765.10
2023-03-06T20:26:38.115Z,96760.67
2023-03-06T20:29:06.586Z,96760.42
2023-03-06T20:31:34.782Z,96759.04
2023-03-06T20:34:04.115Z,96752.25
2023-03-06T20:36:40.475Z,96747.67
2023-03-06T20:39:13.255Z,96746.70
2023-03-06T20:41:42.417Z,96748.54
2023-03-06T20:44:15.083Z,96744.16
2023-03-06T20:46:43.550Z,96742.92
2023-03-06T20:49:13.499Z,96742.14
2023-03-06T20:51:42.022Z,96740.71
2023-03-06T20:54:13.233Z,96739.02
2023-03-06T20:56:42.678Z,96740.81
2023-03-06T20:59:12.513Z,96740.19
2023-03-06T21:01:43.144Z,96739.76
2023-03-06T21:04:16.077Z,96740.94
2023-03-06T21:06:47.116Z,96735.79
2023-03-06T21:09:17.460Z,96736.02
2023-03-06T21:11:46.567Z,96736.70
2023-03-06T21:14:15.707Z,96735.58
2023-03-06T21:16:44.519Z,96737.38
2023-03-06T21:19:12.972Z,96740.17
2023-03-06T21:21:41.266Z,96737.73
2023-03-06T21:24:09.512Z,96738.39
2023-03-06T21:26:37.870Z,96735.71
2023-03-06T21:29:06.206Z,96739.09
2023-03-06T21:31:34.569Z,96744.30
2023-03-06T21:34:05.065Z,96744.41
2023-03-06T21:36:34.202Z,96744.87
2023-03-06T21:39:06.216Z,96745.16
2023-03-06T21:41:34.632Z,96744.33
2023-03-06T21:44:05.175Z,96736.98
2023-03-06T21:46:34.048Z,96725.41
2023-03-06T21:49:04.783Z,96724.69
2023-03-06T21:51:33.478Z,96725.63
2023-03-06T21:54:02.993Z,96724.61
2023-03-06T21:56:33.510Z,96724.66
2023-03-06T21:59:02.078Z,96724.60
2023-03-06T22:01:30.737Z,96721.56
2023-03-06T22:04:00.228Z,96722.60
2023-03-06T22:06:30.259Z,96723.46
2023-03-06T22:09:00.511Z,96719.73
2023-03-06T22:11:31.474Z,96724.23
2023-03-06T22:14:00.052Z,96720.86
2023-03-06T22:16:28.471Z,96718.08
2023-03-06T22:18:56.946Z,96711.80
2023-03-06T22:21:26.034Z,96704.17
2023-03-06T22:23:58.648Z,96704.50
2023-03-06T22:26:28.714Z,96706.80
2023-03-06T22:28:57.549Z,96708.30
2023-03-06T22:31:28.750Z,96706.75
2023-03-06T22:33:59.441Z,96710.27
2023-03-06T22:36:30.762Z,96710.40
2023-03-06T22:39:01.197Z,96713.03
2023-03-06T22:41:29.495Z,96720.48
2023-03-06T22:43:59.190Z,96726.32
2023-03-06T22:46:27.953Z,96722.02
2023-03-06T22:48:57.573Z,96725.28
2023-03-06T22:51:27.092Z,96725.52
2023-03-06T22:53:55.580Z,96721.98
2023-03-06T22:56:24.263Z,96721.53
2023-03-06T22:58:52.434Z,96723.30
2023-03-06T23:01:23.575Z,96723.24
2023-03-06T23:03:54.790Z,96728.26
2023-03-06T23:06:30.449Z,96731.22
2023-03-06T23:09:04.619Z,96730.77
2023-03-06T23:11:34.462Z,96730.34
2023-03-06T23:14:21.358Z,96737.63
2023-03-06T23:17:09.325Z,96740.28
2023-03-06T23:19:56.446Z,96739.64
2023-03-06T23:22:43.511Z,96739.66
2023-03-06T23:25:30.377Z,96738.17
2023-03-06T23:27:58.531Z,96736.81
2023-03-06T23:30:26.745Z,96738.43
2023-03-06T23:32:54.906Z,96739.67
2023-03-06T23:35:23.134Z,96742.96
2023-03-06T23:37:51.757Z,96743.81
2023-03-06T23:40:20.007Z,96745.02
2023-03-06T23:42:48.002Z,96748.67
2023-03-06T23:45:16.339Z,96747.94
2023-03-06T23:47:44.437Z,96750.99
2023-03-06T23:50:12.709Z,96752.91
2023-03-06T23:52:40.826Z,96757.95
2023-03-06T23:55:09.221Z,96756.70
2023-03-06T23:57:37.914Z,96758.12
